X  Fermer Données météorologiques d'aviation de Metar     LFLL Lyon Saint-Exupéry Airport
Température
12°C Température
11°C Point de rosée
94% Humidité



Vent
3 KM/H
2 MPH
1 M/S
2 KTS



Calme
N
Conditions actuelles

Partiellement nuageux Partiellement nuageux
Pression 1012.92 (hPa) - 29.91 (inHg)
Visibilité 3.7 (mile) - 6 (km)
Aéroport
Code de l'aéroport LFLL

Emplacement: Lyon Saint-Exupéry Airport
Distance: 67 (km)

Metar:
LFLL 250200Z VRB02KT 6000 FEW030 BKN140 12/11 Q1013 NOSIG

Temps: 25-09-2022 04:00 CEST